sensor_id;sensor_type;location;lat;lon;timestamp;P1;durP1;ratioP1;P2;durP2;ratioP2
43690;SDS011;29293;52.190;21.226;2023-09-12T00:11:15;34.10;;;24.10;;
43690;SDS011;29293;52.190;21.226;2023-09-12T00:26:22;34.40;;;23.80;;
43690;SDS011;29293;52.190;21.226;2023-09-12T00:41:29;37.60;;;25.70;;
43690;SDS011;29293;52.190;21.226;2023-09-12T00:56:35;35.80;;;26.40;;
43690;SDS011;29293;52.190;21.226;2023-09-12T01:11:43;35.80;;;27.70;;
43690;SDS011;29293;52.190;21.226;2023-09-12T01:26:53;39.10;;;28.90;;
43690;SDS011;29293;52.190;21.226;2023-09-12T01:42:09;37.80;;;27.30;;
43690;SDS011;29293;52.190;21.226;2023-09-12T01:57:20;33.70;;;26.70;;
43690;SDS011;29293;52.190;21.226;2023-09-12T02:12:28;36.90;;;26.50;;
43690;SDS011;29293;52.190;21.226;2023-09-12T02:27:35;32.10;;;25.20;;
43690;SDS011;29293;52.190;21.226;2023-09-12T02:42:42;38.20;;;25.60;;
43690;SDS011;29293;52.190;21.226;2023-09-12T02:57:50;33.30;;;26.40;;
43690;SDS011;29293;52.190;21.226;2023-09-12T03:12:57;34.40;;;26.70;;
43690;SDS011;29293;52.190;21.226;2023-09-12T03:28:04;35.70;;;27.20;;
43690;SDS011;29293;52.190;21.226;2023-09-12T03:43:12;38.00;;;28.60;;
43690;SDS011;29293;52.190;21.226;2023-09-12T03:58:19;36.90;;;26.70;;
43690;SDS011;29293;52.190;21.226;2023-09-12T04:13:26;38.40;;;29.60;;
43690;SDS011;29293;52.190;21.226;2023-09-12T04:28:33;40.70;;;29.60;;
43690;SDS011;29293;52.190;21.226;2023-09-12T04:43:40;35.50;;;26.60;;
43690;SDS011;29293;52.190;21.226;2023-09-12T04:58:48;42.90;;;28.80;;
43690;SDS011;29293;52.190;21.226;2023-09-12T05:13:55;43.10;;;28.60;;
43690;SDS011;29293;52.190;21.226;2023-09-12T05:29:04;41.50;;;31.30;;
43690;SDS011;29293;52.190;21.226;2023-09-12T05:44:10;41.60;;;31.60;;
43690;SDS011;29293;52.190;21.226;2023-09-12T05:59:21;48.00;;;38.60;;
43690;SDS011;29293;52.190;21.226;2023-09-12T06:14:28;48.40;;;36.70;;
43690;SDS011;29293;52.190;21.226;2023-09-12T06:29:35;39.50;;;29.30;;
43690;SDS011;29293;52.190;21.226;2023-09-12T06:44:41;41.50;;;27.80;;
43690;SDS011;29293;52.190;21.226;2023-09-12T06:59:49;29.70;;;22.70;;
43690;SDS011;29293;52.190;21.226;2023-09-12T07:14:55;23.80;;;19.90;;
43690;SDS011;29293;52.190;21.226;2023-09-12T07:30:03;28.10;;;18.90;;
43690;SDS011;29293;52.190;21.226;2023-09-12T07:45:12;24.50;;;16.70;;
43690;SDS011;29293;52.190;21.226;2023-09-12T08:00:19;19.60;;;15.20;;
43690;SDS011;29293;52.190;21.226;2023-09-12T08:15:26;17.60;;;13.80;;
43690;SDS011;29293;52.190;21.226;2023-09-12T08:30:33;17.30;;;12.00;;
43690;SDS011;29293;52.190;21.226;2023-09-12T08:45:39;15.90;;;13.10;;
43690;SDS011;29293;52.190;21.226;2023-09-12T09:00:48;14.80;;;12.60;;
43690;SDS011;29293;52.190;21.226;2023-09-12T09:31:18;15.00;;;11.40;;
43690;SDS011;29293;52.190;21.226;2023-09-12T09:46:25;31.80;;;11.90;;
43690;SDS011;29293;52.190;21.226;2023-09-12T10:16:42;11.70;;;9.60;;
43690;SDS011;29293;52.190;21.226;2023-09-12T10:31:52;11.30;;;9.10;;
43690;SDS011;29293;52.190;21.226;2023-09-12T11:17:43;11.20;;;9.10;;
43690;SDS011;29293;52.190;21.226;2023-09-12T11:32:51;13.40;;;10.90;;
43690;SDS011;29293;52.190;21.226;2023-09-12T11:47:59;13.10;;;10.10;;
43690;SDS011;29293;52.190;21.226;2023-09-12T12:03:08;11.30;;;10.20;;
43690;SDS011;29293;52.190;21.226;2023-09-12T12:18:15;12.20;;;10.40;;
43690;SDS011;29293;52.190;21.226;2023-09-12T12:33:21;12.20;;;10.20;;
43690;SDS011;29293;52.190;21.226;2023-09-12T12:48:31;10.30;;;9.30;;
43690;SDS011;29293;52.190;21.226;2023-09-12T13:03:41;11.70;;;9.90;;
43690;SDS011;29293;52.190;21.226;2023-09-12T13:18:48;10.50;;;9.00;;
43690;SDS011;29293;52.190;21.226;2023-09-12T13:33:55;13.40;;;10.30;;
43690;SDS011;29293;52.190;21.226;2023-09-12T13:49:03;11.70;;;10.20;;
43690;SDS011;29293;52.190;21.226;2023-09-12T14:04:09;15.90;;;11.10;;
43690;SDS011;29293;52.190;21.226;2023-09-12T14:19:18;11.90;;;9.80;;
43690;SDS011;29293;52.190;21.226;2023-09-12T14:34:25;11.00;;;9.70;;
43690;SDS011;29293;52.190;21.226;2023-09-12T14:49:33;19.80;;;11.60;;
43690;SDS011;29293;52.190;21.226;2023-09-12T15:04:40;12.50;;;11.20;;
43690;SDS011;29293;52.190;21.226;2023-09-12T15:19:47;17.90;;;12.50;;
43690;SDS011;29293;52.190;21.226;2023-09-12T15:34:54;13.80;;;11.90;;
43690;SDS011;29293;52.190;21.226;2023-09-12T15:50:01;15.30;;;13.00;;
43690;SDS011;29293;52.190;21.226;2023-09-12T16:05:09;16.80;;;13.50;;
43690;SDS011;29293;52.190;21.226;2023-09-12T16:20:17;16.30;;;14.60;;
43690;SDS011;29293;52.190;21.226;2023-09-12T16:35:23;22.40;;;14.50;;
43690;SDS011;29293;52.190;21.226;2023-09-12T16:50:31;17.40;;;15.50;;
43690;SDS011;29293;52.190;21.226;2023-09-12T17:05:37;18.40;;;15.40;;
43690;SDS011;29293;52.190;21.226;2023-09-12T17:20:44;23.30;;;16.90;;
43690;SDS011;29293;52.190;21.226;2023-09-12T17:35:51;23.60;;;15.20;;
43690;SDS011;29293;52.190;21.226;2023-09-12T17:50:58;29.80;;;17.70;;
43690;SDS011;29293;52.190;21.226;2023-09-12T18:06:05;37.90;;;17.20;;
43690;SDS011;29293;52.190;21.226;2023-09-12T18:21:13;28.40;;;17.80;;
43690;SDS011;29293;52.190;21.226;2023-09-12T18:36:20;33.70;;;19.40;;
43690;SDS011;29293;52.190;21.226;2023-09-12T18:51:30;29.20;;;19.40;;
43690;SDS011;29293;52.190;21.226;2023-09-12T19:06:37;36.60;;;21.40;;
43690;SDS011;29293;52.190;21.226;2023-09-12T19:21:43;37.40;;;22.20;;
43690;SDS011;29293;52.190;21.226;2023-09-12T19:36:51;33.40;;;21.70;;
43690;SDS011;29293;52.190;21.226;2023-09-12T19:51:59;36.40;;;23.40;;
43690;SDS011;29293;52.190;21.226;2023-09-12T20:07:05;45.30;;;24.80;;
43690;SDS011;29293;52.190;21.226;2023-09-12T20:22:13;37.00;;;24.60;;
43690;SDS011;29293;52.190;21.226;2023-09-12T20:37:20;30.90;;;25.20;;
43690;SDS011;29293;52.190;21.226;2023-09-12T20:52:28;37.20;;;24.90;;
43690;SDS011;29293;52.190;21.226;2023-09-12T21:07:34;36.20;;;28.10;;
43690;SDS011;29293;52.190;21.226;2023-09-12T21:22:41;36.50;;;27.20;;
43690;SDS011;29293;52.190;21.226;2023-09-12T21:37:48;39.30;;;28.00;;
43690;SDS011;29293;52.190;21.226;2023-09-12T21:52:55;35.20;;;28.50;;
43690;SDS011;29293;52.190;21.226;2023-09-12T22:08:02;38.10;;;30.00;;
43690;SDS011;29293;52.190;21.226;2023-09-12T22:23:11;46.20;;;32.40;;
43690;SDS011;29293;52.190;21.226;2023-09-12T22:38:18;47.50;;;32.30;;
43690;SDS011;29293;52.190;21.226;2023-09-12T22:53:25;40.00;;;32.50;;
43690;SDS011;29293;52.190;21.226;2023-09-12T23:08:32;41.70;;;30.90;;
43690;SDS011;29293;52.190;21.226;2023-09-12T23:23:39;47.30;;;33.10;;
43690;SDS011;29293;52.190;21.226;2023-09-12T23:38:46;45.70;;;33.30;;
43690;SDS011;29293;52.190;21.226;2023-09-12T23:53:53;43.70;;;33.90;;
